sensor_id;sensor_type;location;lat;lon;timestamp;P1;durP1;ratioP1;P2;durP2;ratioP2
12976;SDS011;6553;48.412;9.514;2023-01-15T00:01:25;1.52;;;0.70;;
12976;SDS011;6553;48.412;9.514;2023-01-15T00:03:58;1.30;;;0.80;;
12976;SDS011;6553;48.412;9.514;2023-01-15T00:06:28;1.52;;;0.85;;
12976;SDS011;6553;48.412;9.514;2023-01-15T00:08:56;0.88;;;0.70;;
12976;SDS011;6553;48.412;9.514;2023-01-15T00:11:23;1.58;;;0.82;;
12976;SDS011;6553;48.412;9.514;2023-01-15T00:13:49;0.73;;;0.50;;
12976;SDS011;6553;48.412;9.514;2023-01-15T00:16:19;0.77;;;0.70;;
12976;SDS011;6553;48.412;9.514;2023-01-15T00:18:51;0.50;;;0.50;;
12976;SDS011;6553;48.412;9.514;2023-01-15T00:21:24;1.42;;;0.73;;
12976;SDS011;6553;48.412;9.514;2023-01-15T00:23:51;0.88;;;0.60;;
12976;SDS011;6553;48.412;9.514;2023-01-15T00:26:36;0.85;;;0.70;;
12976;SDS011;6553;48.412;9.514;2023-01-15T00:29:22;0.75;;;0.75;;
12976;SDS011;6553;48.412;9.514;2023-01-15T00:31:53;0.63;;;0.63;;
12976;SDS011;6553;48.412;9.514;2023-01-15T00:34:30;1.70;;;0.70;;
12976;SDS011;6553;48.412;9.514;2023-01-15T00:36:59;1.10;;;0.70;;
12976;SDS011;6553;48.412;9.514;2023-01-15T00:39:25;0.50;;;0.50;;
12976;SDS011;6553;48.412;9.514;2023-01-15T00:41:52;0.50;;;0.50;;
12976;SDS011;6553;48.412;9.514;2023-01-15T00:44:19;2.65;;;0.75;;
12976;SDS011;6553;48.412;9.514;2023-01-15T00:46:45;0.50;;;0.50;;
12976;SDS011;6553;48.412;9.514;2023-01-15T00:49:12;0.57;;;0.57;;
12976;SDS011;6553;48.412;9.514;2023-01-15T00:51:39;0.63;;;0.60;;
12976;SDS011;6553;48.412;9.514;2023-01-15T00:54:05;0.80;;;0.70;;
12976;SDS011;6553;48.412;9.514;2023-01-15T00:56:30;0.60;;;0.60;;
12976;SDS011;6553;48.412;9.514;2023-01-15T00:58:57;0.77;;;0.70;;
12976;SDS011;6553;48.412;9.514;2023-01-15T01:01:27;0.85;;;0.68;;
12976;SDS011;6553;48.412;9.514;2023-01-15T01:03:53;0.90;;;0.63;;
12976;SDS011;6553;48.412;9.514;2023-01-15T01:06:21;0.50;;;0.50;;
12976;SDS011;6553;48.412;9.514;2023-01-15T01:08:48;1.52;;;0.60;;
12976;SDS011;6553;48.412;9.514;2023-01-15T01:11:15;0.50;;;0.50;;
12976;SDS011;6553;48.412;9.514;2023-01-15T01:13:45;0.80;;;0.68;;
12976;SDS011;6553;48.412;9.514;2023-01-15T01:18:54;1.02;;;0.60;;
12976;SDS011;6553;48.412;9.514;2023-01-15T01:21:22;0.50;;;0.50;;
12976;SDS011;6553;48.412;9.514;2023-01-15T01:23:48;0.80;;;0.80;;
12976;SDS011;6553;48.412;9.514;2023-01-15T01:26:14;0.77;;;0.77;;
12976;SDS011;6553;48.412;9.514;2023-01-15T01:28:41;0.88;;;0.70;;
12976;SDS011;6553;48.412;9.514;2023-01-15T01:31:08;0.80;;;0.80;;
12976;SDS011;6553;48.412;9.514;2023-01-15T01:33:34;0.70;;;0.55;;
12976;SDS011;6553;48.412;9.514;2023-01-15T01:36:00;0.88;;;0.68;;
12976;SDS011;6553;48.412;9.514;2023-01-15T01:38:26;0.85;;;0.70;;
12976;SDS011;6553;48.412;9.514;2023-01-15T01:40:52;1.35;;;0.63;;
12976;SDS011;6553;48.412;9.514;2023-01-15T01:43:19;0.50;;;0.50;;
12976;SDS011;6553;48.412;9.514;2023-01-15T01:45:52;0.73;;;0.50;;
12976;SDS011;6553;48.412;9.514;2023-01-15T01:48:19;0.60;;;0.60;;
12976;SDS011;6553;48.412;9.514;2023-01-15T01:50:53;1.10;;;0.60;;
12976;SDS011;6553;48.412;9.514;2023-01-15T01:53:23;0.80;;;0.60;;
12976;SDS011;6553;48.412;9.514;2023-01-15T01:55:55;0.63;;;0.60;;
12976;SDS011;6553;48.412;9.514;2023-01-15T01:58:21;0.55;;;0.55;;
12976;SDS011;6553;48.412;9.514;2023-01-15T02:00:52;0.70;;;0.70;;
12976;SDS011;6553;48.412;9.514;2023-01-15T02:03:19;0.80;;;0.80;;
12976;SDS011;6553;48.412;9.514;2023-01-15T02:05:53;0.50;;;0.50;;
12976;SDS011;6553;48.412;9.514;2023-01-15T02:08:25;0.65;;;0.60;;
12976;SDS011;6553;48.412;9.514;2023-01-15T02:10:53;0.80;;;0.60;;
12976;SDS011;6553;48.412;9.514;2023-01-15T02:25:33;0.50;;;0.50;;
12976;SDS011;6553;48.412;9.514;2023-01-15T02:28:09;0.50;;;0.50;;
12976;SDS011;6553;48.412;9.514;2023-01-15T02:30:48;0.60;;;0.50;;
12976;SDS011;6553;48.412;9.514;2023-01-15T02:33:29;0.68;;;0.65;;
12976;SDS011;6553;48.412;9.514;2023-01-15T02:36:02;0.70;;;0.70;;
12976;SDS011;6553;48.412;9.514;2023-01-15T02:38:35;0.60;;;0.60;;
12976;SDS011;6553;48.412;9.514;2023-01-15T02:41:08;0.60;;;0.60;;
12976;SDS011;6553;48.412;9.514;2023-01-15T02:43:41;0.70;;;0.50;;
12976;SDS011;6553;48.412;9.514;2023-01-15T02:46:12;0.77;;;0.50;;
12976;SDS011;6553;48.412;9.514;2023-01-15T02:48:43;1.50;;;0.70;;
12976;SDS011;6553;48.412;9.514;2023-01-15T02:51:17;0.45;;;0.45;;
12976;SDS011;6553;48.412;9.514;2023-01-15T02:53:49;0.40;;;0.40;;
12976;SDS011;6553;48.412;9.514;2023-01-15T02:56:22;0.60;;;0.60;;
12976;SDS011;6553;48.412;9.514;2023-01-15T02:58:53;0.60;;;0.60;;
12976;SDS011;6553;48.412;9.514;2023-01-15T03:01:28;0.55;;;0.55;;
12976;SDS011;6553;48.412;9.514;2023-01-15T03:04:09;0.30;;;0.30;;
12976;SDS011;6553;48.412;9.514;2023-01-15T03:07:06;0.65;;;0.45;;
12976;SDS011;6553;48.412;9.514;2023-01-15T03:10:30;0.47;;;0.45;;
12976;SDS011;6553;48.412;9.514;2023-01-15T03:24:49;0.40;;;0.40;;
12976;SDS011;6553;48.412;9.514;2023-01-15T03:27:30;1.15;;;0.55;;
12976;SDS011;6553;48.412;9.514;2023-01-15T03:30:19;1.15;;;0.40;;
12976;SDS011;6553;48.412;9.514;2023-01-15T03:32:47;0.50;;;0.50;;
12976;SDS011;6553;48.412;9.514;2023-01-15T03:38:43;0.40;;;0.40;;
12976;SDS011;6553;48.412;9.514;2023-01-15T03:47:23;0.50;;;0.50;;
12976;SDS011;6553;48.412;9.514;2023-01-15T03:55:58;0.40;;;0.40;;
12976;SDS011;6553;48.412;9.514;2023-01-15T03:58:45;0.85;;;0.60;;
12976;SDS011;6553;48.412;9.514;2023-01-15T04:01:25;0.60;;;0.50;;
12976;SDS011;6553;48.412;9.514;2023-01-15T04:03:59;0.43;;;0.43;;
12976;SDS011;6553;48.412;9.514;2023-01-15T04:06:28;0.50;;;0.50;;
12976;SDS011;6553;48.412;9.514;2023-01-15T04:08:58;0.32;;;0.32;;
12976;SDS011;6553;48.412;9.514;2023-01-15T04:11:30;0.40;;;0.40;;
12976;SDS011;6553;48.412;9.514;2023-01-15T04:14:02;0.50;;;0.50;;
12976;SDS011;6553;48.412;9.514;2023-01-15T04:16:51;1.23;;;0.40;;
12976;SDS011;6553;48.412;9.514;2023-01-15T04:19:21;0.40;;;0.40;;
12976;SDS011;6553;48.412;9.514;2023-01-15T04:21:54;0.55;;;0.40;;
12976;SDS011;6553;48.412;9.514;2023-01-15T04:24:20;0.40;;;0.40;;
12976;SDS011;6553;48.412;9.514;2023-01-15T04:26:45;0.50;;;0.50;;
12976;SDS011;6553;48.412;9.514;2023-01-15T04:29:11;0.30;;;0.30;;
12976;SDS011;6553;48.412;9.514;2023-01-15T04:31:37;0.30;;;0.30;;
12976;SDS011;6553;48.412;9.514;2023-01-15T04:34:03;0.63;;;0.57;;
12976;SDS011;6553;48.412;9.514;2023-01-15T04:36:29;0.50;;;0.50;;
12976;SDS011;6553;48.412;9.514;2023-01-15T04:38:54;0.30;;;0.30;;
12976;SDS011;6553;48.412;9.514;2023-01-15T04:41:22;0.50;;;0.50;;
12976;SDS011;6553;48.412;9.514;2023-01-15T04:44:06;0.43;;;0.43;;
12976;SDS011;6553;48.412;9.514;2023-01-15T04:47:05;0.35;;;0.35;;
12976;SDS011;6553;48.412;9.514;2023-01-15T04:49:24;0.50;;;0.50;;
12976;SDS011;6553;48.412;9.514;2023-01-15T04:51:50;0.77;;;0.60;;
12976;SDS011;6553;48.412;9.514;2023-01-15T04:54:16;0.50;;;0.50;;
12976;SDS011;6553;48.412;9.514;2023-01-15T04:56:43;0.30;;;0.30;;
12976;SDS011;6553;48.412;9.514;2023-01-15T04:59:14;0.47;;;0.40;;
12976;SDS011;6553;48.412;9.514;2023-01-15T05:01:42;0.40;;;0.40;;
12976;SDS011;6553;48.412;9.514;2023-01-15T05:04:08;0.40;;;0.40;;
12976;SDS011;6553;48.412;9.514;2023-01-15T05:06:34;1.13;;;0.30;;
12976;SDS011;6553;48.412;9.514;2023-01-15T05:09:00;0.88;;;0.50;;
12976;SDS011;6553;48.412;9.514;2023-01-15T05:11:29;0.40;;;0.32;;
12976;SDS011;6553;48.412;9.514;2023-01-15T05:13:55;0.43;;;0.40;;
12976;SDS011;6553;48.412;9.514;2023-01-15T05:16:22;0.50;;;0.50;;
12976;SDS011;6553;48.412;9.514;2023-01-15T05:18:51;0.40;;;0.40;;
12976;SDS011;6553;48.412;9.514;2023-01-15T05:21:22;0.40;;;0.40;;
12976;SDS011;6553;48.412;9.514;2023-01-15T05:23:54;0.50;;;0.50;;
12976;SDS011;6553;48.412;9.514;2023-01-15T05:26:24;0.40;;;0.40;;
12976;SDS011;6553;48.412;9.514;2023-01-15T05:28:52;0.50;;;0.50;;
12976;SDS011;6553;48.412;9.514;2023-01-15T05:31:19;0.30;;;0.30;;
12976;SDS011;6553;48.412;9.514;2023-01-15T05:33:47;0.50;;;0.50;;
12976;SDS011;6553;48.412;9.514;2023-01-15T05:36:14;0.70;;;0.50;;
12976;SDS011;6553;48.412;9.514;2023-01-15T05:38:44;0.40;;;0.40;;
12976;SDS011;6553;48.412;9.514;2023-01-15T05:41:11;0.40;;;0.40;;
12976;SDS011;6553;48.412;9.514;2023-01-15T05:43:59;0.40;;;0.40;;
12976;SDS011;6553;48.412;9.514;2023-01-15T05:46:28;0.50;;;0.50;;
12976;SDS011;6553;48.412;9.514;2023-01-15T05:48:58;0.82;;;0.43;;
12976;SDS011;6553;48.412;9.514;2023-01-15T05:51:26;0.40;;;0.40;;
12976;SDS011;6553;48.412;9.514;2023-01-15T05:53:52;0.30;;;0.30;;
12976;SDS011;6553;48.412;9.514;2023-01-15T05:56:18;0.52;;;0.52;;
12976;SDS011;6553;48.412;9.514;2023-01-15T05:58:43;0.30;;;0.30;;
12976;SDS011;6553;48.412;9.514;2023-01-15T06:01:09;0.40;;;0.40;;
12976;SDS011;6553;48.412;9.514;2023-01-15T06:03:36;0.30;;;0.30;;
12976;SDS011;6553;48.412;9.514;2023-01-15T06:06:02;1.00;;;0.30;;
12976;SDS011;6553;48.412;9.514;2023-01-15T06:08:28;0.40;;;0.40;;
12976;SDS011;6553;48.412;9.514;2023-01-15T06:10:55;1.25;;;0.40;;
12976;SDS011;6553;48.412;9.514;2023-01-15T06:13:20;0.80;;;0.40;;
12976;SDS011;6553;48.412;9.514;2023-01-15T06:15:46;0.20;;;0.20;;
12976;SDS011;6553;48.412;9.514;2023-01-15T06:18:12;0.57;;;0.30;;
12976;SDS011;6553;48.412;9.514;2023-01-15T06:20:38;0.57;;;0.50;;
12976;SDS011;6553;48.412;9.514;2023-01-15T06:23:06;0.30;;;0.30;;
12976;SDS011;6553;48.412;9.514;2023-01-15T06:25:33;0.50;;;0.50;;
12976;SDS011;6553;48.412;9.514;2023-01-15T06:28:04;0.35;;;0.35;;
12976;SDS011;6553;48.412;9.514;2023-01-15T06:30:32;0.30;;;0.30;;
12976;SDS011;6553;48.412;9.514;2023-01-15T06:32:59;0.30;;;0.30;;
12976;SDS011;6553;48.412;9.514;2023-01-15T06:35:25;0.30;;;0.30;;
12976;SDS011;6553;48.412;9.514;2023-01-15T06:37:51;0.30;;;0.30;;
12976;SDS011;6553;48.412;9.514;2023-01-15T06:40:17;0.30;;;0.30;;
12976;SDS011;6553;48.412;9.514;2023-01-15T06:42:43;0.30;;;0.30;;
12976;SDS011;6553;48.412;9.514;2023-01-15T06:45:31;0.30;;;0.30;;
12976;SDS011;6553;48.412;9.514;2023-01-15T06:48:22;0.30;;;0.30;;
12976;SDS011;6553;48.412;9.514;2023-01-15T06:50:49;0.47;;;0.43;;
12976;SDS011;6553;48.412;9.514;2023-01-15T06:53:15;0.40;;;0.40;;
12976;SDS011;6553;48.412;9.514;2023-01-15T06:55:40;0.30;;;0.30;;
12976;SDS011;6553;48.412;9.514;2023-01-15T06:58:06;0.30;;;0.30;;
12976;SDS011;6553;48.412;9.514;2023-01-15T07:00:32;0.77;;;0.38;;
12976;SDS011;6553;48.412;9.514;2023-01-15T07:02:58;0.30;;;0.30;;
12976;SDS011;6553;48.412;9.514;2023-01-15T07:05:25;0.30;;;0.30;;
12976;SDS011;6553;48.412;9.514;2023-01-15T07:07:52;0.38;;;0.38;;
12976;SDS011;6553;48.412;9.514;2023-01-15T07:10:18;0.20;;;0.20;;
12976;SDS011;6553;48.412;9.514;2023-01-15T07:12:43;0.60;;;0.32;;
12976;SDS011;6553;48.412;9.514;2023-01-15T07:15:09;0.30;;;0.30;;
12976;SDS011;6553;48.412;9.514;2023-01-15T07:17:35;0.90;;;0.50;;
12976;SDS011;6553;48.412;9.514;2023-01-15T07:20:01;0.20;;;0.20;;
12976;SDS011;6553;48.412;9.514;2023-01-15T07:22:29;0.60;;;0.30;;
12976;SDS011;6553;48.412;9.514;2023-01-15T07:24:55;0.75;;;0.30;;
12976;SDS011;6553;48.412;9.514;2023-01-15T07:27:21;0.43;;;0.30;;
12976;SDS011;6553;48.412;9.514;2023-01-15T07:29:47;0.43;;;0.38;;
12976;SDS011;6553;48.412;9.514;2023-01-15T07:32:14;0.52;;;0.52;;
12976;SDS011;6553;48.412;9.514;2023-01-15T07:34:40;0.57;;;0.57;;
12976;SDS011;6553;48.412;9.514;2023-01-15T07:37:06;1.10;;;0.30;;
12976;SDS011;6553;48.412;9.514;2023-01-15T07:39:32;0.30;;;0.30;;
12976;SDS011;6553;48.412;9.514;2023-01-15T07:41:58;0.55;;;0.32;;
12976;SDS011;6553;48.412;9.514;2023-01-15T07:44:43;0.40;;;0.40;;
12976;SDS011;6553;48.412;9.514;2023-01-15T07:47:27;0.40;;;0.40;;
12976;SDS011;6553;48.412;9.514;2023-01-15T07:50:13;0.73;;;0.50;;
12976;SDS011;6553;48.412;9.514;2023-01-15T07:52:48;0.60;;;0.60;;
12976;SDS011;6553;48.412;9.514;2023-01-15T07:55:15;0.50;;;0.50;;
12976;SDS011;6553;48.412;9.514;2023-01-15T07:57:40;0.60;;;0.60;;
12976;SDS011;6553;48.412;9.514;2023-01-15T08:00:11;0.30;;;0.30;;
12976;SDS011;6553;48.412;9.514;2023-01-15T08:02:43;0.40;;;0.40;;
12976;SDS011;6553;48.412;9.514;2023-01-15T08:05:10;1.30;;;0.52;;
12976;SDS011;6553;48.412;9.514;2023-01-15T08:07:40;0.40;;;0.40;;
12976;SDS011;6553;48.412;9.514;2023-01-15T08:10:07;0.43;;;0.43;;
12976;SDS011;6553;48.412;9.514;2023-01-15T08:12:35;0.40;;;0.40;;
12976;SDS011;6553;48.412;9.514;2023-01-15T08:15:19;0.35;;;0.35;;
12976;SDS011;6553;48.412;9.514;2023-01-15T08:17:46;0.50;;;0.35;;
12976;SDS011;6553;48.412;9.514;2023-01-15T08:20:22;0.30;;;0.30;;
12976;SDS011;6553;48.412;9.514;2023-01-15T08:22:50;0.40;;;0.40;;
12976;SDS011;6553;48.412;9.514;2023-01-15T08:25:20;1.92;;;0.40;;
12976;SDS011;6553;48.412;9.514;2023-01-15T08:27:48;0.30;;;0.30;;
12976;SDS011;6553;48.412;9.514;2023-01-15T08:30:18;0.52;;;0.35;;
12976;SDS011;6553;48.412;9.514;2023-01-15T08:32:48;1.30;;;0.50;;
12976;SDS011;6553;48.412;9.514;2023-01-15T08:35:14;1.40;;;0.40;;
12976;SDS011;6553;48.412;9.514;2023-01-15T08:37:40;0.30;;;0.30;;
12976;SDS011;6553;48.412;9.514;2023-01-15T08:40:07;0.50;;;0.40;;
12976;SDS011;6553;48.412;9.514;2023-01-15T08:42:36;0.38;;;0.35;;
12976;SDS011;6553;48.412;9.514;2023-01-15T08:45:02;0.98;;;0.40;;
12976;SDS011;6553;48.412;9.514;2023-01-15T08:47:28;0.32;;;0.30;;
12976;SDS011;6553;48.412;9.514;2023-01-15T08:49:56;0.30;;;0.30;;
12976;SDS011;6553;48.412;9.514;2023-01-15T08:52:22;0.50;;;0.50;;
12976;SDS011;6553;48.412;9.514;2023-01-15T08:54:47;0.30;;;0.30;;
12976;SDS011;6553;48.412;9.514;2023-01-15T08:57:13;0.32;;;0.32;;
12976;SDS011;6553;48.412;9.514;2023-01-15T08:59:39;0.60;;;0.47;;
12976;SDS011;6553;48.412;9.514;2023-01-15T09:02:08;0.40;;;0.40;;
12976;SDS011;6553;48.412;9.514;2023-01-15T09:04:37;1.00;;;0.30;;
12976;SDS011;6553;48.412;9.514;2023-01-15T09:07:03;0.82;;;0.50;;
12976;SDS011;6553;48.412;9.514;2023-01-15T09:09:29;0.60;;;0.35;;
12976;SDS011;6553;48.412;9.514;2023-01-15T09:11:54;0.40;;;0.40;;
12976;SDS011;6553;48.412;9.514;2023-01-15T09:14:20;0.38;;;0.30;;
12976;SDS011;6553;48.412;9.514;2023-01-15T09:16:46;0.47;;;0.38;;
12976;SDS011;6553;48.412;9.514;2023-01-15T09:19:11;0.57;;;0.32;;
12976;SDS011;6553;48.412;9.514;2023-01-15T09:21:37;0.50;;;0.50;;
12976;SDS011;6553;48.412;9.514;2023-01-15T09:24:03;1.05;;;0.40;;
12976;SDS011;6553;48.412;9.514;2023-01-15T09:26:33;0.50;;;0.50;;
12976;SDS011;6553;48.412;9.514;2023-01-15T09:29:02;1.65;;;0.60;;
12976;SDS011;6553;48.412;9.514;2023-01-15T09:31:30;1.13;;;0.43;;
12976;SDS011;6553;48.412;9.514;2023-01-15T09:33:57;0.45;;;0.45;;
12976;SDS011;6553;48.412;9.514;2023-01-15T09:38:52;0.35;;;0.35;;
12976;SDS011;6553;48.412;9.514;2023-01-15T09:41:22;0.40;;;0.40;;
12976;SDS011;6553;48.412;9.514;2023-01-15T09:44:32;1.58;;;0.50;;
12976;SDS011;6553;48.412;9.514;2023-01-15T09:47:20;0.65;;;0.40;;
12976;SDS011;6553;48.412;9.514;2023-01-15T09:53:53;0.60;;;0.60;;
12976;SDS011;6553;48.412;9.514;2023-01-15T09:56:23;0.40;;;0.40;;
12976;SDS011;6553;48.412;9.514;2023-01-15T09:58:54;1.05;;;0.40;;
12976;SDS011;6553;48.412;9.514;2023-01-15T10:01:27;0.30;;;0.30;;
12976;SDS011;6553;48.412;9.514;2023-01-15T10:04:05;0.50;;;0.50;;
12976;SDS011;6553;48.412;9.514;2023-01-15T10:09:20;0.50;;;0.50;;
12976;SDS011;6553;48.412;9.514;2023-01-15T10:11:57;0.50;;;0.50;;
12976;SDS011;6553;48.412;9.514;2023-01-15T10:17:48;0.90;;;0.50;;
12976;SDS011;6553;48.412;9.514;2023-01-15T10:46:30;0.57;;;0.57;;
12976;SDS011;6553;48.412;9.514;2023-01-15T10:49:03;3.38;;;0.70;;
12976;SDS011;6553;48.412;9.514;2023-01-15T10:51:51;1.13;;;0.68;;
12976;SDS011;6553;48.412;9.514;2023-01-15T10:54:39;2.05;;;0.70;;
12976;SDS011;6553;48.412;9.514;2023-01-15T11:00:08;0.65;;;0.50;;
12976;SDS011;6553;48.412;9.514;2023-01-15T11:05:03;2.25;;;0.98;;
12976;SDS011;6553;48.412;9.514;2023-01-15T11:10:08;1.20;;;0.63;;
12976;SDS011;6553;48.412;9.514;2023-01-15T11:12:40;0.70;;;0.70;;
12976;SDS011;6553;48.412;9.514;2023-01-15T11:15:57;1.08;;;0.70;;
12976;SDS011;6553;48.412;9.514;2023-01-15T11:18:42;1.05;;;0.60;;
12976;SDS011;6553;48.412;9.514;2023-01-15T11:21:29;1.15;;;0.55;;
12976;SDS011;6553;48.412;9.514;2023-01-15T11:23:56;0.90;;;0.65;;
12976;SDS011;6553;48.412;9.514;2023-01-15T11:26:24;0.77;;;0.70;;
12976;SDS011;6553;48.412;9.514;2023-01-15T11:28:54;0.60;;;0.60;;
12976;SDS011;6553;48.412;9.514;2023-01-15T11:31:23;0.95;;;0.70;;
12976;SDS011;6553;48.412;9.514;2023-01-15T11:34:03;0.52;;;0.50;;
12976;SDS011;6553;48.412;9.514;2023-01-15T11:36:31;0.98;;;0.50;;
12976;SDS011;6553;48.412;9.514;2023-01-15T11:38:58;0.52;;;0.50;;
12976;SDS011;6553;48.412;9.514;2023-01-15T11:41:28;0.82;;;0.68;;
12976;SDS011;6553;48.412;9.514;2023-01-15T11:44:16;1.38;;;0.70;;
12976;SDS011;6553;48.412;9.514;2023-01-15T11:47:09;1.23;;;0.90;;
12976;SDS011;6553;48.412;9.514;2023-01-15T11:50:01;1.25;;;0.93;;
12976;SDS011;6553;48.412;9.514;2023-01-15T11:52:59;0.75;;;0.70;;
12976;SDS011;6553;48.412;9.514;2023-01-15T11:55:25;1.35;;;0.95;;
12976;SDS011;6553;48.412;9.514;2023-01-15T11:57:52;1.33;;;0.80;;
12976;SDS011;6553;48.412;9.514;2023-01-15T12:00:25;1.40;;;0.73;;
12976;SDS011;6553;48.412;9.514;2023-01-15T12:03:04;0.98;;;0.88;;
12976;SDS011;6553;48.412;9.514;2023-01-15T12:05:44;1.73;;;0.80;;
12976;SDS011;6553;48.412;9.514;2023-01-15T12:08:25;0.93;;;0.52;;
12976;SDS011;6553;48.412;9.514;2023-01-15T12:26:15;0.90;;;0.90;;
12976;SDS011;6553;48.412;9.514;2023-01-15T12:31:37;2.50;;;0.65;;
12976;SDS011;6553;48.412;9.514;2023-01-15T12:34:22;2.35;;;0.70;;
12976;SDS011;6553;48.412;9.514;2023-01-15T12:37:08;1.95;;;0.93;;
12976;SDS011;6553;48.412;9.514;2023-01-15T12:42:44;1.40;;;0.95;;
12976;SDS011;6553;48.412;9.514;2023-01-15T12:45:35;1.35;;;0.70;;
12976;SDS011;6553;48.412;9.514;2023-01-15T12:51:03;1.77;;;0.80;;
12976;SDS011;6553;48.412;9.514;2023-01-15T12:53:42;2.50;;;1.02;;
12976;SDS011;6553;48.412;9.514;2023-01-15T12:56:27;0.80;;;0.80;;
12976;SDS011;6553;48.412;9.514;2023-01-15T13:05:03;0.70;;;0.70;;
12976;SDS011;6553;48.412;9.514;2023-01-15T13:07:53;0.77;;;0.73;;
12976;SDS011;6553;48.412;9.514;2023-01-15T13:10:28;0.98;;;0.70;;
12976;SDS011;6553;48.412;9.514;2023-01-15T13:21:32;0.95;;;0.80;;
12976;SDS011;6553;48.412;9.514;2023-01-15T13:27:06;1.75;;;0.70;;
12976;SDS011;6553;48.412;9.514;2023-01-15T13:32:42;1.52;;;0.70;;
12976;SDS011;6553;48.412;9.514;2023-01-15T13:37:58;1.13;;;0.90;;
12976;SDS011;6553;48.412;9.514;2023-01-15T13:42:58;1.15;;;0.70;;
12976;SDS011;6553;48.412;9.514;2023-01-15T13:45:38;1.38;;;0.80;;
12976;SDS011;6553;48.412;9.514;2023-01-15T13:48:16;0.65;;;0.55;;
12976;SDS011;6553;48.412;9.514;2023-01-15T13:51:03;1.63;;;0.70;;
12976;SDS011;6553;48.412;9.514;2023-01-15T13:56:11;0.95;;;0.70;;
12976;SDS011;6553;48.412;9.514;2023-01-15T13:58:54;0.77;;;0.60;;
12976;SDS011;6553;48.412;9.514;2023-01-15T14:01:49;0.93;;;0.73;;
12976;SDS011;6553;48.412;9.514;2023-01-15T14:04:15;2.42;;;0.90;;
12976;SDS011;6553;48.412;9.514;2023-01-15T14:06:42;2.53;;;0.65;;
12976;SDS011;6553;48.412;9.514;2023-01-15T14:09:13;1.08;;;0.80;;
12976;SDS011;6553;48.412;9.514;2023-01-15T14:24:15;1.92;;;0.80;;
12976;SDS011;6553;48.412;9.514;2023-01-15T14:27:16;1.05;;;0.73;;
12976;SDS011;6553;48.412;9.514;2023-01-15T14:30:08;1.50;;;0.70;;
12976;SDS011;6553;48.412;9.514;2023-01-15T14:33:31;0.68;;;0.57;;
12976;SDS011;6553;48.412;9.514;2023-01-15T14:36:23;2.35;;;0.80;;
12976;SDS011;6553;48.412;9.514;2023-01-15T14:38:57;2.25;;;0.88;;
12976;SDS011;6553;48.412;9.514;2023-01-15T14:41:28;3.03;;;0.80;;
12976;SDS011;6553;48.412;9.514;2023-01-15T14:43:58;1.58;;;0.90;;
12976;SDS011;6553;48.412;9.514;2023-01-15T14:46:33;2.13;;;0.90;;
12976;SDS011;6553;48.412;9.514;2023-01-15T14:49:01;0.73;;;0.73;;
12976;SDS011;6553;48.412;9.514;2023-01-15T14:51:32;1.10;;;0.93;;
12976;SDS011;6553;48.412;9.514;2023-01-15T14:54:12;2.90;;;0.85;;
12976;SDS011;6553;48.412;9.514;2023-01-15T14:56:44;0.80;;;0.70;;
12976;SDS011;6553;48.412;9.514;2023-01-15T14:59:25;0.80;;;0.60;;
12976;SDS011;6553;48.412;9.514;2023-01-15T15:02:17;0.80;;;0.70;;
12976;SDS011;6553;48.412;9.514;2023-01-15T15:04:48;1.00;;;0.70;;
12976;SDS011;6553;48.412;9.514;2023-01-15T15:07:19;1.00;;;0.70;;
12976;SDS011;6553;48.412;9.514;2023-01-15T15:09:55;1.27;;;0.85;;
12976;SDS011;6553;48.412;9.514;2023-01-15T15:23:38;1.05;;;0.70;;
12976;SDS011;6553;48.412;9.514;2023-01-15T15:26:21;1.30;;;0.73;;
12976;SDS011;6553;48.412;9.514;2023-01-15T15:31:34;1.52;;;0.73;;
12976;SDS011;6553;48.412;9.514;2023-01-15T15:34:05;2.05;;;0.80;;
12976;SDS011;6553;48.412;9.514;2023-01-15T15:36:39;1.95;;;0.90;;
12976;SDS011;6553;48.412;9.514;2023-01-15T15:39:18;0.95;;;0.63;;
12976;SDS011;6553;48.412;9.514;2023-01-15T15:41:56;1.60;;;0.60;;
12976;SDS011;6553;48.412;9.514;2023-01-15T15:47:36;0.98;;;0.80;;
12976;SDS011;6553;48.412;9.514;2023-01-15T15:50:28;1.80;;;0.80;;
12976;SDS011;6553;48.412;9.514;2023-01-15T15:52:57;0.77;;;0.60;;
12976;SDS011;6553;48.412;9.514;2023-01-15T15:55:26;0.80;;;0.80;;
12976;SDS011;6553;48.412;9.514;2023-01-15T15:58:02;1.33;;;0.80;;
12976;SDS011;6553;48.412;9.514;2023-01-15T16:00:32;1.15;;;0.70;;
12976;SDS011;6553;48.412;9.514;2023-01-15T16:03:04;1.38;;;0.80;;
12976;SDS011;6553;48.412;9.514;2023-01-15T16:05:40;1.08;;;0.77;;
12976;SDS011;6553;48.412;9.514;2023-01-15T16:08:14;1.45;;;0.98;;
12976;SDS011;6553;48.412;9.514;2023-01-15T16:10:44;1.67;;;0.70;;
12976;SDS011;6553;48.412;9.514;2023-01-15T16:13:24;1.10;;;0.70;;
12976;SDS011;6553;48.412;9.514;2023-01-15T16:15:59;1.13;;;0.95;;
12976;SDS011;6553;48.412;9.514;2023-01-15T16:18:27;1.63;;;0.80;;
12976;SDS011;6553;48.412;9.514;2023-01-15T16:21:00;1.00;;;0.80;;
12976;SDS011;6553;48.412;9.514;2023-01-15T16:23:27;0.90;;;0.90;;
12976;SDS011;6553;48.412;9.514;2023-01-15T16:25:55;1.35;;;0.80;;
12976;SDS011;6553;48.412;9.514;2023-01-15T16:28:54;0.95;;;0.80;;
12976;SDS011;6553;48.412;9.514;2023-01-15T16:31:24;1.48;;;0.90;;
12976;SDS011;6553;48.412;9.514;2023-01-15T16:33:52;0.70;;;0.70;;
12976;SDS011;6553;48.412;9.514;2023-01-15T16:36:22;1.42;;;0.82;;
12976;SDS011;6553;48.412;9.514;2023-01-15T16:38:50;1.42;;;0.90;;
12976;SDS011;6553;48.412;9.514;2023-01-15T16:41:25;1.88;;;0.75;;
12976;SDS011;6553;48.412;9.514;2023-01-15T16:44:02;0.60;;;0.60;;
12976;SDS011;6553;48.412;9.514;2023-01-15T16:46:35;1.60;;;0.98;;
12976;SDS011;6553;48.412;9.514;2023-01-15T16:51:47;1.65;;;1.00;;
12976;SDS011;6553;48.412;9.514;2023-01-15T16:54:39;0.73;;;0.73;;
12976;SDS011;6553;48.412;9.514;2023-01-15T16:57:24;0.85;;;0.85;;
12976;SDS011;6553;48.412;9.514;2023-01-15T16:59:57;0.88;;;0.70;;
12976;SDS011;6553;48.412;9.514;2023-01-15T17:02:27;1.73;;;0.80;;
12976;SDS011;6553;48.412;9.514;2023-01-15T17:05:21;1.58;;;0.80;;
12976;SDS011;6553;48.412;9.514;2023-01-15T17:07:49;1.60;;;0.70;;
12976;SDS011;6553;48.412;9.514;2023-01-15T17:10:22;1.08;;;1.00;;
12976;SDS011;6553;48.412;9.514;2023-01-15T17:12:52;1.00;;;0.90;;
12976;SDS011;6553;48.412;9.514;2023-01-15T17:17:52;1.33;;;0.93;;
12976;SDS011;6553;48.412;9.514;2023-01-15T17:20:20;1.70;;;0.90;;
12976;SDS011;6553;48.412;9.514;2023-01-15T17:22:51;1.52;;;1.00;;
12976;SDS011;6553;48.412;9.514;2023-01-15T17:25:29;1.15;;;0.90;;
12976;SDS011;6553;48.412;9.514;2023-01-15T17:27:58;1.20;;;1.10;;
12976;SDS011;6553;48.412;9.514;2023-01-15T17:30:26;1.17;;;1.10;;
12976;SDS011;6553;48.412;9.514;2023-01-15T17:33:04;1.40;;;0.90;;
12976;SDS011;6553;48.412;9.514;2023-01-15T17:35:36;0.98;;;0.88;;
12976;SDS011;6553;48.412;9.514;2023-01-15T17:38:05;1.75;;;0.90;;
12976;SDS011;6553;48.412;9.514;2023-01-15T17:40:32;1.02;;;1.00;;
12976;SDS011;6553;48.412;9.514;2023-01-15T17:42:58;1.10;;;1.00;;
12976;SDS011;6553;48.412;9.514;2023-01-15T17:45:26;0.85;;;0.85;;
12976;SDS011;6553;48.412;9.514;2023-01-15T17:47:55;1.38;;;0.90;;
12976;SDS011;6553;48.412;9.514;2023-01-15T17:50:21;2.17;;;0.98;;
12976;SDS011;6553;48.412;9.514;2023-01-15T17:52:47;0.85;;;0.80;;
12976;SDS011;6553;48.412;9.514;2023-01-15T17:55:15;1.52;;;1.00;;
12976;SDS011;6553;48.412;9.514;2023-01-15T17:58:03;2.03;;;1.10;;
12976;SDS011;6553;48.412;9.514;2023-01-15T18:00:47;1.20;;;1.10;;
12976;SDS011;6553;48.412;9.514;2023-01-15T18:03:35;1.40;;;1.00;;
12976;SDS011;6553;48.412;9.514;2023-01-15T18:06:25;1.30;;;1.20;;
12976;SDS011;6553;48.412;9.514;2023-01-15T18:08:52;1.75;;;0.90;;
12976;SDS011;6553;48.412;9.514;2023-01-15T18:11:22;3.15;;;1.00;;
12976;SDS011;6553;48.412;9.514;2023-01-15T18:13:48;1.15;;;1.00;;
12976;SDS011;6553;48.412;9.514;2023-01-15T18:16:14;2.35;;;0.85;;
12976;SDS011;6553;48.412;9.514;2023-01-15T18:18:41;1.70;;;1.00;;
12976;SDS011;6553;48.412;9.514;2023-01-15T18:21:07;1.08;;;0.80;;
12976;SDS011;6553;48.412;9.514;2023-01-15T18:23:33;1.77;;;0.90;;
12976;SDS011;6553;48.412;9.514;2023-01-15T18:26:04;1.55;;;1.38;;
12976;SDS011;6553;48.412;9.514;2023-01-15T18:28:31;1.30;;;1.00;;